YAMB weather

RAAF Base Amberley
Queensland, Australia

Public forecast

Using degrees Celsius for public forecast. Weather courtesy of forecast.io.

Current aviation weather report (METAR) for RAAF Base Amberley

Retrieved 2020/03/31 23:30 UTC (3 minutes ago):

YAMB 312330Z 19003KT 9999 FEW030 26/18 Q1018 NOSIG

Aviation forecast (TAF) for RAAF Base Amberley

Retrieved 2020/03/31 18:00 UTC (6 hours ago):

TAF YAMB 311602Z 3118/0112 VRB03KT 9999 MIFG FEW020 FM312100 14006KT 9999 NSW FEW030 FM010400 10009KT 9999 SCT040